createdAt,value
2018-11-06T00:00:57.444Z,86.24
2018-11-06T00:05:59.898Z,86.58
2018-11-06T00:11:02.331Z,86.49
2018-11-06T00:16:05.314Z,86.79
2018-11-06T00:21:07.979Z,86.83
2018-11-06T00:26:10.324Z,86.73
2018-11-06T00:31:12.760Z,86.24
2018-11-06T00:36:15.095Z,85.90
2018-11-06T00:41:17.592Z,86.08
2018-11-06T00:46:20.108Z,85.74
2018-11-06T00:51:22.639Z,85.55
2018-11-06T00:56:25.029Z,86.01
2018-11-06T01:01:27.576Z,85.87
2018-11-06T01:06:30.155Z,86.46
2018-11-06T01:11:40.120Z,85.51
2018-11-06T01:16:49.267Z,85.99
2018-11-06T01:21:51.816Z,85.25
2018-11-06T01:26:54.298Z,84.52
2018-11-06T01:31:56.869Z,86.30
2018-11-06T01:36:59.583Z,85.16
2018-11-06T01:42:01.972Z,85.73
2018-11-06T01:47:04.682Z,85.87
2018-11-06T01:52:07.058Z,84.44
2018-11-06T01:57:09.674Z,85.24
2018-11-06T02:02:12.085Z,86.12
2018-11-06T02:07:14.512Z,85.53
2018-11-06T02:12:17.091Z,86.27
2018-11-06T02:17:19.584Z,85.63
2018-11-06T02:22:22.125Z,86.40
2018-11-06T02:27:25.692Z,86.20
2018-11-06T02:32:28.149Z,85.68
2018-11-06T02:37:30.547Z,85.67
2018-11-06T02:42:33.020Z,85.38
2018-11-06T02:47:35.551Z,85.73
2018-11-06T02:52:37.971Z,85.71
2018-11-06T02:57:40.914Z,87.54
2018-11-06T03:02:43.889Z,87.67
2018-11-06T03:07:46.380Z,89.49
2018-11-06T03:12:48.767Z,90.22
2018-11-06T03:17:51.135Z,89.93
2018-11-06T03:22:53.613Z,88.71
2018-11-06T03:27:56.019Z,88.56
2018-11-06T03:32:58.456Z,88.57
2018-11-06T03:38:01.351Z,88.56
2018-11-06T03:43:03.811Z,89.03
2018-11-06T03:48:06.208Z,88.75
2018-11-06T03:53:08.618Z,88.68
2018-11-06T03:58:11.032Z,89.36
2018-11-06T04:03:13.459Z,89.50
2018-11-06T04:08:15.910Z,88.55
2018-11-06T04:13:18.261Z,88.34
2018-11-06T04:18:20.700Z,89.21
2018-11-06T04:23:23.071Z,89.76
2018-11-06T04:28:25.418Z,89.07
2018-11-06T04:33:27.818Z,89.29
2018-11-06T04:38:30.229Z,89.74
2018-11-06T04:43:32.615Z,90.69
2018-11-06T04:48:34.948Z,90.25
2018-11-06T04:53:37.408Z,90.12
2018-11-06T04:58:39.780Z,88.79
2018-11-06T05:03:46.532Z,89.95
2018-11-06T05:08:48.896Z,90.04
2018-11-06T05:13:51.350Z,90.99
2018-11-06T05:18:53.674Z,89.79
2018-11-06T05:23:56.090Z,89.64
2018-11-06T05:28:58.490Z,89.82
2018-11-06T05:34:00.891Z,90.09
2018-11-06T05:39:08.297Z,90.03
2018-11-06T05:44:11.760Z,89.32
2018-11-06T05:49:14.482Z,89.02
2018-11-06T05:54:17.416Z,89.22
2018-11-06T05:59:19.830Z,88.55
2018-11-06T06:04:22.376Z,88.87
2018-11-06T06:09:24.985Z,87.95
2018-11-06T06:14:27.424Z,88.22
2018-11-06T06:19:31.037Z,87.92
2018-11-06T06:24:33.544Z,88.45
2018-11-06T06:29:35.988Z,88.49
2018-11-06T06:34:38.811Z,89.34
2018-11-06T06:39:41.118Z,89.28
2018-11-06T06:44:43.471Z,89.58
2018-11-06T06:49:45.832Z,89.06
2018-11-06T06:54:48.261Z,89.49
2018-11-06T06:59:50.646Z,89.05
2018-11-06T07:04:53.099Z,88.54
2018-11-06T07:09:55.491Z,89.02
2018-11-06T07:14:57.947Z,88.23
2018-11-06T07:20:00.380Z,89.17
2018-11-06T07:25:02.756Z,88.92
2018-11-06T07:30:07.665Z,88.35
2018-11-06T07:35:10.736Z,87.10
2018-11-06T07:40:14.387Z,86.26
2018-11-06T07:45:18.214Z,87.05
2018-11-06T07:50:20.639Z,86.51
2018-11-06T07:55:23.053Z,85.54
2018-11-06T08:00:26.109Z,85.90
2018-11-06T08:05:28.529Z,85.92
2018-11-06T08:10:30.892Z,86.09
2018-11-06T08:15:33.213Z,86.25
2018-11-06T08:20:35.592Z,85.96
2018-11-06T08:25:37.927Z,86.37
2018-11-06T08:30:40.340Z,85.37
2018-11-06T08:35:42.670Z,85.78
2018-11-06T08:40:45.821Z,85.61
2018-11-06T08:45:48.283Z,85.06
2018-11-06T08:50:50.681Z,85.28
2018-11-06T08:55:53.078Z,84.65
2018-11-06T09:00:55.487Z,84.30
2018-11-06T09:05:57.938Z,84.58
2018-11-06T09:11:00.300Z,83.92
2018-11-06T09:16:02.660Z,84.26
2018-11-06T09:21:05.126Z,83.57
2018-11-06T09:26:07.510Z,83.61
2018-11-06T09:31:10.761Z,83.05
2018-11-06T09:36:13.143Z,82.68
2018-11-06T09:41:15.560Z,81.58
2018-11-06T09:46:17.926Z,81.79
2018-11-06T09:51:20.338Z,81.35
2018-11-06T09:56:22.707Z,81.09
2018-11-06T10:01:25.028Z,81.26
2018-11-06T10:06:28.497Z,81.06
2018-11-06T10:11:30.847Z,80.84
2018-11-06T10:16:33.408Z,80.56
2018-11-06T10:21:35.865Z,80.36
2018-11-06T10:26:38.283Z,79.78
2018-11-06T10:31:40.764Z,79.82
2018-11-06T10:36:43.323Z,80.30
2018-11-06T10:41:45.709Z,80.19
2018-11-06T10:46:48.503Z,79.83
2018-11-06T10:51:50.925Z,79.56
2018-11-06T10:56:53.319Z,79.90
2018-11-06T11:02:01.351Z,79.98
2018-11-06T11:07:03.812Z,79.30
2018-11-06T11:12:06.179Z,79.03
2018-11-06T11:17:08.650Z,79.04
2018-11-06T11:22:11.251Z,77.45
2018-11-06T11:27:13.671Z,78.47
2018-11-06T11:32:16.443Z,79.33
2018-11-06T11:37:18.875Z,79.66
2018-11-06T11:42:21.295Z,78.88
2018-11-06T11:47:23.719Z,78.68
2018-11-06T11:52:26.170Z,78.94
2018-11-06T11:57:28.587Z,78.19
2018-11-06T12:02:31.013Z,78.73
2018-11-06T12:07:33.404Z,78.18
2018-11-06T12:12:35.839Z,78.37
2018-11-06T12:17:38.553Z,78.32
2018-11-06T12:22:41.333Z,78.60
2018-11-06T12:27:43.988Z,78.05
2018-11-06T12:32:46.689Z,78.21
2018-11-06T12:37:49.067Z,78.45
2018-11-06T12:42:51.566Z,79.59
2018-11-06T12:47:54.000Z,78.84
2018-11-06T12:52:56.504Z,78.88
2018-11-06T12:57:58.860Z,78.82
2018-11-06T13:03:01.220Z,79.43
2018-11-06T13:08:03.659Z,79.15
2018-11-06T13:13:06.112Z,78.18
2018-11-06T13:18:08.499Z,79.41
2018-11-06T13:23:10.832Z,78.62
2018-11-06T13:28:13.220Z,78.18
2018-11-06T13:33:15.715Z,77.47
2018-11-06T13:38:18.147Z,78.24
2018-11-06T13:43:20.639Z,78.65
2018-11-06T13:48:22.915Z,78.29
2018-11-06T13:53:25.359Z,78.10
2018-11-06T13:58:27.743Z,77.53
2018-11-06T14:03:30.123Z,77.27
2018-11-06T14:08:32.780Z,77.65
2018-11-06T14:13:35.264Z,76.48
2018-11-06T14:18:37.665Z,76.05
2018-11-06T14:23:40.036Z,75.67
2018-11-06T14:28:42.504Z,77.53
2018-11-06T14:33:44.899Z,77.14
2018-11-06T14:38:47.281Z,77.39
2018-11-06T14:43:49.750Z,77.15
2018-11-06T14:48:52.310Z,77.29
2018-11-06T14:53:54.620Z,78.60
2018-11-06T14:58:57.036Z,78.91
2018-11-06T15:03:59.522Z,79.28
2018-11-06T15:09:01.988Z,78.88
2018-11-06T15:14:04.647Z,79.36
2018-11-06T15:19:07.034Z,79.96
2018-11-06T15:24:09.566Z,77.04
2018-11-06T15:29:11.972Z,78.08
2018-11-06T15:34:14.345Z,79.42
2018-11-06T15:39:16.787Z,79.22
2018-11-06T15:44:19.144Z,80.51
2018-11-06T15:49:21.667Z,80.02
2018-11-06T15:54:24.050Z,79.95
2018-11-06T15:59:26.432Z,79.96
2018-11-06T16:04:29.573Z,80.40
2018-11-06T16:09:32.025Z,80.94
2018-11-06T16:14:35.067Z,81.13
2018-11-06T16:19:37.448Z,81.30
2018-11-06T16:24:39.900Z,82.21
2018-11-06T16:29:42.366Z,82.27
2018-11-06T16:34:44.767Z,81.60
2018-11-06T16:39:47.173Z,82.11
2018-11-06T16:44:49.607Z,81.87
2018-11-06T16:49:51.971Z,81.24
2018-11-06T16:54:54.450Z,80.90
2018-11-06T16:59:56.884Z,81.87
2018-11-06T17:04:59.243Z,80.05
2018-11-06T17:10:01.636Z,80.17
2018-11-06T17:15:05.213Z,81.48
2018-11-06T17:20:13.299Z,81.82
2018-11-06T17:25:17.155Z,81.70
2018-11-06T17:30:19.711Z,81.65
2018-11-06T17:35:22.148Z,82.22
2018-11-06T17:40:24.483Z,82.70
2018-11-06T17:45:26.883Z,82.93
2018-11-06T17:50:29.226Z,83.51
2018-11-06T17:55:32.005Z,82.90
2018-11-06T18:00:34.303Z,82.73
2018-11-06T18:05:37.182Z,83.12
2018-11-06T18:10:39.591Z,84.47
2018-11-06T18:15:41.969Z,85.32
2018-11-06T18:20:44.389Z,85.49
2018-11-06T18:25:47.105Z,85.85
2018-11-06T18:30:49.443Z,86.25
2018-11-06T18:35:51.903Z,86.08
2018-11-06T18:40:54.337Z,86.02
2018-11-06T18:45:56.688Z,86.32
2018-11-06T18:50:59.148Z,86.19
2018-11-06T18:56:06.606Z,86.35
2018-11-06T19:01:09.072Z,86.24
2018-11-06T19:06:11.525Z,86.60
2018-11-06T19:11:13.970Z,86.45
2018-11-06T19:16:16.576Z,86.85
2018-11-06T19:21:19.491Z,86.76
2018-11-06T19:26:21.881Z,86.89
2018-11-06T19:31:24.381Z,86.96
2018-11-06T19:36:27.295Z,87.17
2018-11-06T19:41:29.626Z,87.01
2018-11-06T19:46:32.033Z,87.30
2018-11-06T19:51:34.727Z,87.07
2018-11-06T19:56:37.716Z,87.72
2018-11-06T20:01:40.130Z,87.57
2018-11-06T20:06:42.575Z,87.65
2018-11-06T20:11:46.044Z,87.22
2018-11-06T20:16:48.339Z,87.38
2018-11-06T20:21:50.785Z,87.58
2018-11-06T20:26:53.226Z,87.69
2018-11-06T20:32:12.573Z,85.91
2018-11-06T20:37:16.456Z,88.14
2018-11-06T20:42:19.024Z,88.60
2018-11-06T20:47:21.599Z,88.62
2018-11-06T20:52:24.223Z,89.39
2018-11-06T21:02:37.528Z,89.87
2018-11-06T21:07:40.034Z,88.60
2018-11-06T21:12:42.632Z,89.12
2018-11-06T21:17:45.202Z,89.59
2018-11-06T21:22:47.753Z,89.41
2018-11-06T21:27:50.289Z,89.42
2018-11-06T21:32:53.427Z,89.70
2018-11-06T21:37:55.959Z,90.07
2018-11-06T21:42:58.852Z,89.92
2018-11-06T21:48:01.736Z,90.45
2018-11-06T21:53:04.352Z,89.65
2018-11-06T21:58:06.742Z,89.93
2018-11-06T22:03:09.432Z,89.65
2018-11-06T22:08:11.790Z,89.83
2018-11-06T22:13:14.275Z,89.51
2018-11-06T22:18:16.718Z,89.36
2018-11-06T22:23:19.336Z,89.46
2018-11-06T22:28:21.788Z,89.16
2018-11-06T22:33:24.128Z,89.41
2018-11-06T22:38:26.756Z,89.53
2018-11-06T22:43:29.111Z,90.42
2018-11-06T22:48:31.644Z,90.25
2018-11-06T22:58:49.303Z,90.06
2018-11-06T23:03:59.012Z,90.15
2018-11-06T23:09:04.280Z,90.06
2018-11-06T23:19:29.137Z,90.19
2018-11-06T23:30:12.839Z,89.88
2018-11-06T23:40:31.619Z,90.00
2018-11-06T23:45:35.516Z,89.75
2018-11-06T23:50:38.084Z,89.87
2018-11-06T23:55:41.817Z,89.62
